Time;durP1;ratioP1;P1;durP2;ratioP2;P2;SDS_P1;SDS_P2;PMS_P1;PMS_P2;Temp;Humidity;BMP_temperature;BMP_pressure;BME280_temperature;BME280_humidity;BME280_pressure;Samples;Min_cycle;Max_cycle;Signal;HPM_P1;HPM_P2
2020/12/07 00:02:02;;;;;;;11.13;6.10;;;;;;;7.23;80.26;99311.00;4943642;29;20856;-73
2020/12/07 00:04:28;;;;;;;10.07;6.40;;;;;;;7.20;80.14;99311.94;4937142;29;20660;-73
2020/12/07 00:06:54;;;;;;;12.77;6.63;;;;;;;7.09;80.99;99298.50;4940023;28;20196;-75
2020/12/07 00:09:21;;;;;;;10.83;6.03;;;;;;;7.13;80.69;99294.91;4943950;29;20199;-74
2020/12/07 00:11:47;;;;;;;10.77;6.30;;;;;;;7.16;80.76;99281.84;4942526;29;20315;-75
2020/12/07 00:14:14;;;;;;;10.77;6.70;;;;;;;7.13;80.71;99286.28;4941021;28;20207;-74
2020/12/07 00:16:43;;;;;;;9.47;6.33;;;;;;;7.16;80.57;99300.00;4934059;29;20459;-75
2020/12/07 00:19:09;;;;;;;11.20;6.97;;;;;;;7.11;80.59;99299.28;4938619;29;20211;-75
2020/12/07 00:21:35;;;;;;;11.83;7.47;;;;;;;7.09;80.41;99295.03;4937554;29;20608;-74
2020/12/07 00:24:00;;;;;;;11.00;7.20;;;;;;;7.06;80.95;99285.63;4941461;28;20282;-74
2020/12/07 00:26:27;;;;;;;12.73;7.13;;;;;;;7.07;80.71;99278.69;4942050;29;20226;-75
2020/12/07 00:28:58;;;;;;;14.37;7.80;;;;;;;7.06;80.79;99271.84;4947332;28;20199;-74
2020/12/07 00:31:24;;;;;;;13.23;7.33;;;;;;;7.10;80.29;99278.59;4936924;29;20210;-75
2020/12/07 00:33:50;;;;;;;13.97;8.07;;;;;;;7.14;80.34;99275.88;4952340;28;20214;-74
2020/12/07 00:36:16;;;;;;;12.73;7.20;;;;;;;7.14;80.15;99275.00;4935372;29;20208;-75
2020/12/07 00:38:42;;;;;;;13.50;8.03;;;;;;;7.08;81.02;99277.81;4935866;29;20762;-74
2020/12/07 00:41:08;;;;;;;13.93;8.50;;;;;;;7.11;80.24;99272.53;4946648;29;20568;-74
2020/12/07 00:43:34;;;;;;;15.60;8.60;;;;;;;7.10;80.38;99286.38;4947163;28;20263;-75
2020/12/07 00:46:00;;;;;;;13.87;8.70;;;;;;;7.04;80.80;99273.63;4940799;28;20205;-75
2020/12/07 00:48:26;;;;;;;15.80;8.67;;;;;;;6.99;81.08;99272.03;4935699;29;20191;-75
2020/12/07 00:50:52;;;;;;;12.47;7.40;;;;;;;7.03;80.57;99275.38;4956425;28;20219;-74
2020/12/07 00:53:18;;;;;;;15.47;8.13;;;;;;;6.99;80.93;99271.19;4939208;28;20745;-75
2020/12/07 00:55:44;;;;;;;12.30;7.90;;;;;;;6.94;81.34;99258.38;4938644;29;20258;-74
2020/12/07 00:58:10;;;;;;;14.07;7.90;;;;;;;6.90;81.16;99256.78;4933991;28;20227;-73
2020/12/07 01:00:36;;;;;;;14.03;8.33;;;;;;;6.85;81.67;99245.72;4949915;28;20211;-74
2020/12/07 01:03:03;;;;;;;15.23;8.00;;;;;;;6.86;81.27;99250.03;4937622;28;20323;-74
2020/12/07 01:05:29;;;;;;;15.90;8.53;;;;;;;6.83;81.66;99239.75;4937431;29;20294;-75
2020/12/07 01:07:55;;;;;;;14.27;8.27;;;;;;;6.76;81.82;99244.28;4936582;29;20723;-74
2020/12/07 01:10:21;;;;;;;13.87;7.77;;;;;;;6.74;82.13;99246.06;4936793;29;20203;-75
2020/12/07 01:12:47;;;;;;;14.00;8.07;;;;;;;6.71;82.08;99241.00;4936550;29;20873;-74
2020/12/07 01:15:13;;;;;;;13.63;8.17;;;;;;;6.70;82.00;99244.50;4935200;28;20204;-74
2020/12/07 01:17:40;;;;;;;15.70;8.57;;;;;;;6.68;82.15;99241.09;4939122;29;20207;-75
2020/12/07 01:20:10;;;;;;;14.10;8.63;;;;;;;6.65;81.95;99241.19;4934871;28;20668;-75
2020/12/07 01:22:37;;;;;;;16.43;8.97;;;;;;;6.57;82.64;99236.25;4943160;29;20221;-74
2020/12/07 01:25:04;;;;;;;13.33;8.07;;;;;;;6.46;82.99;99227.16;4932935;28;20294;-75
2020/12/07 01:27:40;;;;;;;14.73;8.80;;;;;;;6.37;83.60;99217.94;4936486;29;20203;-74
2020/12/07 01:30:06;;;;;;;14.70;8.83;;;;;;;6.32;83.85;99223.22;4932721;28;20254;-74
2020/12/07 01:32:33;;;;;;;15.17;8.83;;;;;;;6.28;83.72;99224.22;4955613;28;20215;-74
2020/12/07 01:35:00;;;;;;;14.30;8.80;;;;;;;6.25;84.03;99235.50;4942480;28;20281;-74
2020/12/07 01:37:26;;;;;;;15.53;8.80;;;;;;;6.24;84.21;99240.72;4935160;29;20762;-74
2020/12/07 01:39:52;;;;;;;14.07;8.43;;;;;;;6.23;84.02;99239.06;4941715;29;20317;-75
2020/12/07 01:42:19;;;;;;;14.67;8.93;;;;;;;6.19;84.24;99234.84;4937593;29;20242;-74
2020/12/07 01:44:46;;;;;;;16.87;9.57;;;;;;;6.12;84.23;99234.22;4949087;28;20200;-74
2020/12/07 01:47:21;;;;;;;15.43;8.33;;;;;;;6.05;84.66;99236.13;4936238;28;20242;-74
2020/12/07 01:49:50;;;;;;;17.50;9.57;;;;;;;6.03;84.76;99234.47;4940330;29;20213;-74
2020/12/07 01:52:20;;;;;;;16.93;8.93;;;;;;;6.00;84.75;99242.34;4940592;29;20211;-75
2020/12/07 01:54:46;;;;;;;18.17;9.37;;;;;;;5.95;84.96;99226.91;4938708;28;20203;-74
2020/12/07 01:57:12;;;;;;;14.13;8.47;;;;;;;5.93;85.20;99226.09;4935181;29;20238;-74
2020/12/07 01:59:38;;;;;;;15.97;10.07;;;;;;;5.91;85.37;99224.44;4939034;29;20199;-75
2020/12/07 02:02:05;;;;;;;17.30;9.47;;;;;;;5.89;85.47;99232.25;4940523;29;20273;-75
2020/12/07 02:04:31;;;;;;;18.40;9.77;;;;;;;5.88;85.39;99240.91;4938647;28;20670;-75
2020/12/07 02:06:57;;;;;;;15.93;9.90;;;;;;;5.86;85.59;99242.69;4926864;28;20226;-75
2020/12/07 02:09:30;;;;;;;17.53;10.07;;;;;;;5.87;85.65;99240.06;4937486;29;20207;-73
2020/12/07 02:11:57;;;;;;;18.60;9.70;;;;;;;5.88;85.04;99236.56;4936116;29;20230;-74
2020/12/07 02:14:23;;;;;;;18.40;9.73;;;;;;;5.89;85.31;99240.00;4935118;29;20222;-74
2020/12/07 02:16:49;;;;;;;15.33;9.27;;;;;;;5.90;85.27;99238.28;4940308;29;20218;-74
2020/12/07 02:19:15;;;;;;;16.03;10.17;;;;;;;5.91;85.26;99242.56;4944070;29;20191;-74
2020/12/07 02:21:49;;;;;;;16.93;8.90;;;;;;;5.90;85.37;99241.72;4935185;28;20210;-75
2020/12/07 02:24:38;;;;;;;17.13;9.70;;;;;;;5.92;85.34;99234.75;4935933;29;20210;-75
2020/12/07 02:27:16;;;;;;;16.17;9.00;;;;;;;5.93;85.29;99223.53;4935849;29;20203;-75
2020/12/07 02:29:43;;;;;;;16.67;9.63;;;;;;;5.94;84.76;99216.59;4946024;28;20204;-74
2020/12/07 02:32:13;;;;;;;20.30;9.57;;;;;;;5.97;85.06;99213.97;4936628;28;20314;-75
2020/12/07 02:34:43;;;;;;;18.47;10.23;;;;;;;5.96;85.11;99222.59;4930881;29;20219;-74
2020/12/07 02:37:10;;;;;;;17.03;10.17;;;;;;;5.91;85.20;99214.97;4935009;28;20211;-74
2020/12/07 02:39:37;;;;;;;19.90;10.23;;;;;;;5.95;84.94;99219.13;4940697;29;20723;-75
2020/12/07 02:42:04;;;;;;;17.80;9.83;;;;;;;5.96;84.81;99215.72;4935746;28;20235;-75
2020/12/07 02:44:31;;;;;;;14.60;8.73;;;;;;;5.95;85.15;99210.53;4935445;29;20207;-75
2020/12/07 02:47:06;;;;;;;19.20;10.47;;;;;;;5.94;85.22;99211.41;4933023;29;20201;-74
2020/12/07 02:49:32;;;;;;;17.00;9.13;;;;;;;5.95;85.00;99208.78;4939844;29;20199;-73
2020/12/07 02:51:59;;;;;;;17.83;9.87;;;;;;;5.97;84.91;99213.97;4937033;28;20227;-73
2020/12/07 02:54:33;;;;;;;17.60;10.17;;;;;;;5.97;84.64;99211.38;4950744;28;20199;-74
2020/12/07 02:57:03;;;;;;;17.50;9.73;;;;;;;6.01;84.64;99211.22;4938806;28;20218;-75
2020/12/07 02:59:29;;;;;;;15.07;9.47;;;;;;;6.03;84.15;99212.03;4951093;28;20742;-74
2020/12/07 03:01:56;;;;;;;17.23;9.73;;;;;;;6.06;84.25;99205.91;4936560;29;20242;-74
2020/12/07 03:04:22;;;;;;;17.93;9.33;;;;;;;6.07;83.92;99217.97;4945387;28;20202;-73
2020/12/07 03:06:48;;;;;;;16.73;10.20;;;;;;;6.07;83.77;99210.22;4935690;28;20680;-74
2020/12/07 03:09:14;;;;;;;18.80;10.17;;;;;;;6.07;83.75;99217.97;4943990;28;20258;-74
2020/12/07 03:11:41;;;;;;;18.27;9.93;;;;;;;6.07;83.58;99220.56;4936310;29;20207;-75
2020/12/07 03:14:07;;;;;;;18.60;11.33;;;;;;;6.07;83.78;99217.97;4942970;28;20297;-75
2020/12/07 03:16:33;;;;;;;17.33;10.37;;;;;;;6.12;83.72;99220.41;4940670;29;20206;-75
2020/12/07 03:19:01;;;;;;;18.00;10.73;;;;;;;6.10;83.56;99220.44;4949954;28;20223;-74
2020/12/07 03:21:27;;;;;;;19.60;10.77;;;;;;;6.07;83.52;99211.03;4941329;28;20238;-74
2020/12/07 03:24:01;;;;;;;16.93;10.40;;;;;;;6.05;83.67;99219.72;4935384;29;20270;-74
2020/12/07 03:26:27;;;;;;;21.70;11.10;;;;;;;6.04;83.70;99218.06;4944043;29;20262;-74
2020/12/07 03:28:55;;;;;;;19.13;10.53;;;;;;;6.03;83.55;99206.00;4941105;28;20206;-75
2020/12/07 03:31:21;;;;;;;19.70;10.63;;;;;;;6.01;83.38;99224.16;4939201;29;20234;-74
2020/12/07 03:33:49;;;;;;;17.77;10.57;;;;;;;6.02;83.49;99217.25;4966443;28;20261;-75
2020/12/07 03:36:18;;;;;;;18.47;10.63;;;;;;;6.02;83.56;99215.50;4937427;29;20292;-74
2020/12/07 03:38:45;;;;;;;17.20;10.50;;;;;;;6.04;83.14;99218.06;4962694;28;20218;-74
2020/12/07 03:41:12;;;;;;;20.70;10.60;;;;;;;6.02;83.13;99210.34;4933391;28;20204;-75
2020/12/07 03:43:44;;;;;;;17.43;9.97;;;;;;;6.04;83.19;99210.28;4948363;28;20672;-73
2020/12/07 03:46:11;;;;;;;20.03;10.43;;;;;;;6.07;82.93;99223.16;4936859;28;20206;-74
2020/12/07 03:48:39;;;;;;;18.27;10.20;;;;;;;6.06;83.11;99216.25;4937913;29;20690;-74
2020/12/07 03:51:08;;;;;;;15.00;9.53;;;;;;;6.05;82.79;99204.19;4940163;29;20208;-74
2020/12/07 03:53:36;;;;;;;19.70;10.83;;;;;;;6.07;82.94;99210.22;4944457;29;20661;-75
2020/12/07 03:56:05;;;;;;;19.83;10.60;;;;;;;6.09;82.52;99203.25;4938470;29;20230;-74
2020/12/07 03:58:32;;;;;;;19.13;11.13;;;;;;;6.07;82.70;99200.69;4945531;29;20241;-73
2020/12/07 04:00:59;;;;;;;17.63;9.83;;;;;;;6.07;82.85;99190.34;4944198;28;20206;-75
2020/12/07 04:03:27;;;;;;;18.87;10.87;;;;;;;6.06;82.54;99185.22;4941255;29;20218;-74
2020/12/07 04:06:06;;;;;;;19.10;11.50;;;;;;;6.05;82.74;99201.63;4937724;29;20216;-74
2020/12/07 04:08:32;;;;;;;22.60;11.33;;;;;;;6.03;82.49;99196.50;4939313;29;20288;-75
2020/12/07 04:10:58;;;;;;;17.53;10.93;;;;;;;6.01;82.63;99187.09;4944250;28;20700;-74
2020/12/07 04:13:24;;;;;;;19.10;10.73;;;;;;;5.98;82.54;99193.22;4941664;28;20215;-74
2020/12/07 04:15:50;;;;;;;18.27;11.00;;;;;;;5.98;82.45;99187.19;4945443;28;20559;-74
2020/12/07 04:18:16;;;;;;;16.90;10.40;;;;;;;5.96;82.56;99188.97;4943189;28;20729;-75
2020/12/07 04:20:43;;;;;;;17.73;10.77;;;;;;;5.93;82.80;99183.84;4940219;29;20221;-74
2020/12/07 04:23:09;;;;;;;17.90;10.70;;;;;;;5.91;82.52;99178.75;4941251;28;20238;-75
2020/12/07 04:25:35;;;;;;;18.93;11.03;;;;;;;5.90;82.33;99189.13;4949664;29;20195;-75
2020/12/07 04:28:01;;;;;;;20.43;10.33;;;;;;;5.90;82.64;99187.38;4942214;28;20215;-75
2020/12/07 04:30:27;;;;;;;20.43;11.57;;;;;;;5.87;82.53;99178.00;4947686;28;20191;-74
2020/12/07 04:32:52;;;;;;;21.63;11.13;;;;;;;5.85;82.72;99187.50;4942624;28;20709;-75
2020/12/07 04:35:18;;;;;;;20.43;11.33;;;;;;;5.82;82.79;99191.94;4940380;28;20215;-74
2020/12/07 04:37:45;;;;;;;20.67;10.83;;;;;;;5.79;82.59;99176.53;4935608;29;20212;-75
2020/12/07 04:40:11;;;;;;;21.87;11.37;;;;;;;5.76;83.15;99184.38;4939691;29;20195;-74
2020/12/07 04:42:40;;;;;;;18.93;10.63;;;;;;;5.68;83.10;99176.81;4941849;28;20247;-73
2020/12/07 04:45:07;;;;;;;20.97;11.10;;;;;;;5.67;83.36;99180.31;4940528;28;20206;-74
2020/12/07 04:47:33;;;;;;;19.90;10.77;;;;;;;5.68;82.92;99179.41;4935624;29;20206;-74
2020/12/07 04:50:03;;;;;;;18.30;10.17;;;;;;;5.66;83.25;99173.44;4949473;28;20209;-74
2020/12/07 04:52:29;;;;;;;18.30;10.50;;;;;;;5.67;83.03;99173.38;4941401;29;20223;-74
2020/12/07 04:54:57;;;;;;;16.93;10.63;;;;;;;5.71;82.59;99184.47;4946505;28;20604;-75
2020/12/07 04:57:23;;;;;;;21.63;10.80;;;;;;;5.68;82.71;99179.41;4945505;28;20216;-75
2020/12/07 04:59:49;;;;;;;18.67;10.23;;;;;;;5.65;83.04;99192.44;4932625;29;20285;-74
2020/12/07 05:02:15;;;;;;;18.13;10.20;;;;;;;5.67;83.10;99195.81;4944111;29;20258;-74
2020/12/07 05:04:41;;;;;;;19.30;10.40;;;;;;;5.65;82.78;99175.16;4942817;28;20202;-74
2020/12/07 05:07:08;;;;;;;18.30;10.47;;;;;;;5.64;82.76;99172.63;4936658;28;20194;-74
2020/12/07 05:09:36;;;;;;;19.13;10.37;;;;;;;5.63;82.89;99176.97;4945091;29;20283;-73
2020/12/07 05:12:07;;;;;;;18.50;10.10;;;;;;;5.65;82.87;99169.16;4940000;28;20321;-74
2020/12/07 05:14:33;;;;;;;20.83;10.87;;;;;;;5.61;83.25;99183.91;4954145;28;20698;-73
2020/12/07 05:16:59;;;;;;;16.53;10.27;;;;;;;5.54;83.21;99182.41;4935225;29;20719;-74
2020/12/07 05:19:26;;;;;;;19.07;10.40;;;;;;;5.52;83.31;99185.91;4936151;28;20201;-74
2020/12/07 05:21:52;;;;;;;18.77;11.27;;;;;;;5.47;83.50;99186.91;4935290;29;20591;-74
2020/12/07 05:24:18;;;;;;;19.37;11.30;;;;;;;5.44;83.47;99193.88;4937575;29;20230;-74
2020/12/07 05:26:44;;;;;;;18.33;10.73;;;;;;;5.41;83.82;99193.97;4932878;29;20563;-74
2020/12/07 05:29:15;;;;;;;20.60;10.93;;;;;;;5.41;83.61;99201.72;4937421;29;20286;-74
2020/12/07 05:31:41;;;;;;;22.80;12.10;;;;;;;5.39;84.00;99200.91;4937113;29;20394;-73
2020/12/07 05:34:07;;;;;;;20.03;10.13;;;;;;;5.36;83.73;99208.75;4937634;28;20493;-74
2020/12/07 05:36:33;;;;;;;20.57;10.67;;;;;;;5.34;84.42;99213.97;4934017;29;20205;-74
2020/12/07 05:39:00;;;;;;;19.87;11.60;;;;;;;5.32;83.88;99221.75;4924378;29;20262;-74
2020/12/07 05:41:29;;;;;;;19.90;10.63;;;;;;;5.32;84.39;99221.75;4943864;28;20298;-73
2020/12/07 05:43:55;;;;;;;23.63;11.70;;;;;;;5.31;83.91;99220.06;4943934;28;20245;-74
2020/12/07 05:46:26;;;;;;;19.37;10.87;;;;;;;5.30;84.06;99239.03;4929113;29;20228;-73
2020/12/07 05:48:53;;;;;;;23.10;11.67;;;;;;;5.28;84.19;99234.81;4932537;29;20287;-73
2020/12/07 05:51:23;;;;;;;17.90;10.70;;;;;;;5.23;84.95;99244.44;4927661;29;20211;-73
2020/12/07 05:53:49;;;;;;;18.33;10.40;;;;;;;5.24;84.81;99262.47;4926346;29;20215;-73
2020/12/07 05:56:17;;;;;;;20.37;11.33;;;;;;;5.29;84.31;99259.75;4931902;28;20274;-74
2020/12/07 05:58:56;;;;;;;19.67;11.53;;;;;;;5.32;84.27;99264.84;4932417;28;20223;-74
2020/12/07 06:01:27;;;;;;;21.57;9.93;;;;;;;5.37;83.87;99277.66;4930187;29;20489;-74
2020/12/07 06:03:54;;;;;;;17.20;10.33;;;;;;;5.40;83.88;99278.44;4947621;28;20719;-73
2020/12/07 06:06:29;;;;;;;20.63;10.40;;;;;;;5.41;83.84;99284.44;4932953;29;20195;-74
2020/12/07 06:08:55;;;;;;;20.13;10.23;;;;;;;5.43;83.42;99291.25;4949364;28;20221;-74
2020/12/07 06:11:23;;;;;;;18.13;10.53;;;;;;;5.50;82.92;99290.22;4942965;29;20202;-74
2020/12/07 06:13:49;;;;;;;24.43;10.50;;;;;;;5.56;82.75;99301.28;4945267;28;20223;-73
2020/12/07 06:16:15;;;;;;;19.37;11.00;;;;;;;5.58;82.70;99299.53;4943735;28;20206;-73
2020/12/07 06:18:44;;;;;;;21.57;12.00;;;;;;;5.56;83.14;99299.56;4922234;29;20860;-74
2020/12/07 06:21:13;;;;;;;20.00;10.77;;;;;;;5.56;82.92;99298.69;4942622;28;20278;-74
2020/12/07 06:23:41;;;;;;;20.47;11.13;;;;;;;5.56;82.91;99296.97;4934423;28;20227;-74
2020/12/07 06:26:08;;;;;;;23.33;13.17;;;;;;;5.59;83.02;99298.63;4936795;29;21013;-74
2020/12/07 06:28:36;;;;;;;22.07;12.07;;;;;;;5.59;82.97;99306.38;4943545;29;20201;-74
2020/12/07 06:31:09;;;;;;;31.97;16.60;;;;;;;5.59;82.60;99312.38;4933450;28;20210;-74
2020/12/07 06:33:40;;;;;;;25.70;12.80;;;;;;;5.58;82.76;99317.63;4942553;28;20226;-74
2020/12/07 06:36:26;;;;;;;20.13;11.67;;;;;;;5.57;82.72;99332.25;4945085;28;20685;-74
2020/12/07 06:38:55;;;;;;;22.77;11.80;;;;;;;5.56;83.02;99332.28;4948986;28;20587;-75
2020/12/07 06:41:31;;;;;;;20.93;12.20;;;;;;;5.53;83.10;99351.34;4939678;28;20203;-74
2020/12/07 06:43:58;;;;;;;21.60;11.70;;;;;;;5.52;83.41;99365.13;4957541;28;20262;-74
2020/12/07 06:46:45;;;;;;;20.60;12.10;;;;;;;5.49;83.20;99363.50;4932152;29;20675;-74
2020/12/07 06:49:15;;;;;;;21.83;12.07;;;;;;;5.48;82.91;99368.69;4943585;28;20187;-74
2020/12/07 06:51:45;;;;;;;22.40;12.27;;;;;;;5.45;83.19;99364.47;4948657;28;20607;-74
2020/12/07 06:56:57;;;;;;;20.03;11.43;;;;;;;5.39;83.47;99359.44;4942522;29;20381;-74
2020/12/07 06:59:25;;;;;;;20.23;11.07;;;;;;;5.38;83.59;99354.31;4946640;29;20210;-74
2020/12/07 07:01:51;;;;;;;20.03;11.57;;;;;;;5.39;83.40;99361.19;4945269;28;20202;-72
2020/12/07 07:04:19;;;;;;;19.20;11.20;;;;;;;5.40;83.52;99357.69;4951160;28;20194;-74
2020/12/07 07:06:46;;;;;;;21.23;11.03;;;;;;;5.41;83.47;99362.00;4946467;28;20564;-73
2020/12/07 07:09:12;;;;;;;20.27;11.03;;;;;;;5.42;83.29;99369.72;4944869;28;20195;-74
2020/12/07 07:11:38;;;;;;;20.83;12.70;;;;;;;5.44;83.11;99370.53;4947350;28;20632;-73
2020/12/07 07:14:04;;;;;;;20.63;12.13;;;;;;;5.45;83.25;99374.81;4944328;28;20261;-73
2020/12/07 07:16:33;;;;;;;23.43;11.10;;;;;;;5.46;83.30;99389.41;4937302;28;20195;-74
2020/12/07 07:18:59;;;;;;;23.90;12.10;;;;;;;5.47;83.16;99391.13;4943048;28;20254;-74
2020/12/07 07:21:25;;;;;;;20.67;11.90;;;;;;;5.46;83.34;99397.19;4947979;28;20254;-74
2020/12/07 07:23:53;;;;;;;22.53;11.30;;;;;;;5.50;83.20;99392.78;4942030;29;20602;-74
2020/12/07 07:26:24;;;;;;;16.67;10.80;;;;;;;5.49;83.48;99381.59;4935099;28;20204;-74
2020/12/07 07:28:51;;;;;;;20.23;11.47;;;;;;;5.51;82.98;99384.16;4943570;29;20199;-74
2020/12/07 07:31:17;;;;;;;19.97;10.97;;;;;;;5.52;83.35;99398.75;4947607;28;20262;-73
2020/12/07 07:33:43;;;;;;;21.03;11.40;;;;;;;5.53;83.39;99387.53;4950569;28;20699;-74
2020/12/07 07:36:22;;;;;;;21.90;12.03;;;;;;;5.54;83.26;99389.25;4943129;28;20281;-73
2020/12/07 07:38:53;;;;;;;19.33;11.53;;;;;;;5.56;83.30;99396.94;4941289;29;20242;-74
2020/12/07 07:41:21;;;;;;;18.97;10.30;;;;;;;5.57;83.20;99396.91;4947135;28;20707;-74
2020/12/07 07:43:48;;;;;;;18.83;11.10;;;;;;;5.63;83.13;99396.75;4932841;29;20785;-74
2020/12/07 07:46:13;;;;;;;17.80;10.97;;;;;;;5.68;82.92;99399.22;4929436;28;20683;-74
2020/12/07 07:48:48;;;;;;;18.67;10.63;;;;;;;5.70;82.72;99407.81;4934144;28;20208;-74
2020/12/07 07:51:48;;;;;;;18.87;11.07;;;;;;;5.72;82.76;99400.84;4953570;28;20208;-74
2020/12/07 08:00:30;;;;;;;21.53;11.63;;;;;;;5.67;82.52;99408.72;4951692;28;20560;-74
2020/12/07 08:06:39;;;;;;;24.17;12.43;;;;;;;5.56;82.97;99412.44;4942103;28;20379;-74
2020/12/07 08:17:47;;;;;;;19.20;11.57;;;;;;;5.67;83.20;99424.22;4949139;29;20309;-74
2020/12/07 08:20:13;;;;;;;17.77;10.73;;;;;;;5.69;82.80;99419.88;4949190;28;20201;-74
2020/12/07 08:22:39;;;;;;;20.77;12.20;;;;;;;5.72;82.94;99418.97;4953446;28;20301;-74
2020/12/07 08:25:06;;;;;;;22.60;11.50;;;;;;;5.73;82.57;99410.28;4944695;28;20231;-74
2020/12/07 08:27:32;;;;;;;21.43;11.37;;;;;;;5.74;83.05;99424.94;4952144;28;20191;-73
2020/12/07 08:30:02;;;;;;;20.27;11.47;;;;;;;5.74;82.63;99421.50;4952260;28;20685;-74
2020/12/07 08:32:28;;;;;;;21.87;11.10;;;;;;;5.75;82.26;99411.13;4946619;28;20568;-74
2020/12/07 08:34:54;;;;;;;17.53;10.17;;;;;;;5.76;82.43;99419.72;4947179;28;20298;-74
2020/12/07 08:37:19;;;;;;;21.87;11.60;;;;;;;5.77;82.41;99426.56;4954713;28;20190;-74
2020/12/07 08:39:45;;;;;;;19.87;11.43;;;;;;;5.77;82.71;99434.34;4949939;29;20294;-74
2020/12/07 08:42:12;;;;;;;17.87;10.53;;;;;;;5.78;82.76;99439.47;4942278;28;20746;-74
2020/12/07 08:44:38;;;;;;;18.20;11.33;;;;;;;5.77;82.83;99448.16;4946123;29;20207;-74
2020/12/07 08:47:06;;;;;;;23.33;12.80;;;;;;;5.78;83.10;99441.22;4950517;28;20213;-74
2020/12/07 08:49:32;;;;;;;21.80;11.47;;;;;;;5.77;82.89;99430.03;4963335;28;20214;-74
2020/12/07 08:51:59;;;;;;;19.57;11.50;;;;;;;5.80;83.07;99440.28;4950959;28;20301;-74
2020/12/07 08:54:24;;;;;;;21.40;12.17;;;;;;;5.81;82.67;99449.75;4945869;29;20194;-73
2020/12/07 08:56:50;;;;;;;22.33;13.70;;;;;;;5.83;82.40;99450.56;4948000;28;20207;-74
2020/12/07 08:59:17;;;;;;;23.20;12.93;;;;;;;5.84;82.56;99462.63;4953575;28;20219;-74
2020/12/07 09:01:43;;;;;;;22.67;12.83;;;;;;;5.85;82.38;99463.47;4948871;28;20726;-74
2020/12/07 09:04:10;;;;;;;21.27;11.73;;;;;;;5.86;82.20;99468.59;4946809;28;20234;-73
2020/12/07 09:06:39;;;;;;;17.50;12.00;;;;;;;5.88;82.79;99481.50;4947831;28;20730;-74
2020/12/07 09:09:05;;;;;;;20.13;11.37;;;;;;;5.90;82.21;99473.69;4948165;29;20672;-74
2020/12/07 09:11:31;;;;;;;21.27;12.13;;;;;;;5.89;82.77;99472.84;4950921;28;20249;-74
2020/12/07 09:13:57;;;;;;;20.60;11.93;;;;;;;5.90;82.24;99473.69;4950586;28;20229;-74
2020/12/07 09:16:24;;;;;;;18.77;11.47;;;;;;;5.90;82.82;99469.38;4950894;28;20262;-74
2020/12/07 09:18:49;;;;;;;20.03;11.10;;;;;;;5.93;82.40;99473.59;4950044;28;20695;-74
2020/12/07 09:21:15;;;;;;;20.50;12.03;;;;;;;5.92;82.56;99465.00;4951611;28;20254;-74
2020/12/07 09:23:41;;;;;;;20.90;11.40;;;;;;;5.96;82.34;99473.56;4942328;29;20697;-74
2020/12/07 09:26:08;;;;;;;22.37;12.20;;;;;;;5.97;82.26;99462.34;4949848;28;20210;-73
2020/12/07 09:28:36;;;;;;;17.33;10.13;;;;;;;5.98;82.17;99454.53;4947139;29;20191;-73
2020/12/07 09:31:02;;;;;;;18.60;10.60;;;;;;;6.00;82.72;99467.44;4944569;28;20274;-74
2020/12/07 09:33:29;;;;;;;21.83;11.90;;;;;;;6.02;82.44;99468.25;4947102;29;20226;-74
2020/12/07 09:35:55;;;;;;;23.50;11.70;;;;;;;6.04;82.10;99466.47;4950284;28;20203;-73
2020/12/07 09:38:20;;;;;;;20.47;11.17;;;;;;;6.04;82.17;99462.13;4951734;28;20249;-73
2020/12/07 09:40:46;;;;;;;23.77;11.73;;;;;;;6.07;82.05;99463.81;4948092;28;20226;-74
2020/12/07 09:43:13;;;;;;;17.30;10.87;;;;;;;6.07;81.94;99472.41;4942398;29;20256;-74
2020/12/07 09:45:39;;;;;;;21.97;11.37;;;;;;;6.08;81.87;99473.25;4947046;28;20202;-74
2020/12/07 09:48:05;;;;;;;21.10;11.67;;;;;;;6.11;81.92;99480.94;4949066;29;20205;-74
2020/12/07 09:50:31;;;;;;;19.20;10.90;;;;;;;6.11;82.09;99480.09;4949784;28;20598;-74
2020/12/07 09:52:57;;;;;;;19.70;11.40;;;;;;;6.09;82.22;99479.28;4943398;28;20226;-73
2020/12/07 09:55:25;;;;;;;17.80;10.90;;;;;;;6.08;82.18;99475.84;4943835;28;20199;-74
2020/12/07 09:57:50;;;;;;;21.27;11.27;;;;;;;6.06;82.74;99481.03;4952284;28;20255;-73
2020/12/07 10:00:17;;;;;;;17.83;11.10;;;;;;;6.05;82.44;99488.84;4948908;28;20253;-74
2020/12/07 10:02:43;;;;;;;18.33;10.77;;;;;;;6.05;82.31;99497.47;4950938;29;20375;-73
2020/12/07 10:05:09;;;;;;;18.97;11.13;;;;;;;6.07;82.46;99494.84;4949071;28;20660;-74
2020/12/07 10:07:35;;;;;;;20.27;11.60;;;;;;;6.08;82.41;99488.78;4948104;29;20679;-74
2020/12/07 10:10:01;;;;;;;21.63;11.37;;;;;;;6.11;82.76;99493.03;4946350;28;20759;-73
2020/12/07 10:12:27;;;;;;;18.17;10.43;;;;;;;6.13;82.47;99493.84;4951088;28;20233;-73
2020/12/07 10:14:55;;;;;;;19.73;11.07;;;;;;;6.15;82.78;99497.22;4933798;28;20259;-74
2020/12/07 10:17:21;;;;;;;20.97;10.07;;;;;;;6.16;82.70;99493.78;4959348;28;20667;-74
2020/12/07 10:19:47;;;;;;;17.73;11.10;;;;;;;6.18;82.77;99489.41;4945223;28;20683;-74
2020/12/07 10:22:12;;;;;;;19.37;11.13;;;;;;;6.20;82.67;99480.69;4967374;28;20252;-74
2020/12/07 10:24:39;;;;;;;17.67;10.73;;;;;;;6.24;82.61;99489.22;4942275;28;20438;-74
2020/12/07 10:27:05;;;;;;;18.63;11.50;;;;;;;6.25;83.07;99488.34;4964047;28;20198;-74
2020/12/07 10:29:31;;;;;;;21.50;12.00;;;;;;;6.24;83.27;99487.50;4952104;28;20249;-74
2020/12/07 10:31:57;;;;;;;16.80;10.77;;;;;;;6.29;82.99;99492.53;4945128;28;20570;-74
2020/12/07 10:34:23;;;;;;;15.93;10.13;;;;;;;6.32;83.42;99489.88;4948529;28;20209;-74
2020/12/07 10:36:50;;;;;;;17.70;10.87;;;;;;;6.32;83.88;99491.63;4957074;28;20209;-74
2020/12/07 10:39:16;;;;;;;17.80;11.70;;;;;;;6.34;83.63;99498.44;4951014;28;20207;-74
2020/12/07 10:41:42;;;;;;;16.67;9.83;;;;;;;6.40;83.78;99503.47;4939988;29;20213;-74
2020/12/07 10:44:09;;;;;;;17.03;10.53;;;;;;;6.46;83.95;99518.00;4945245;29;20207;-73
2020/12/07 10:46:37;;;;;;;16.33;9.23;;;;;;;6.52;83.73;99514.38;4963623;28;20198;-74
2020/12/07 10:49:04;;;;;;;17.03;11.17;;;;;;;6.56;83.61;99496.13;4947868;28;20286;-74
2020/12/07 10:51:30;;;;;;;13.67;9.63;;;;;;;6.60;83.65;99510.69;4951221;28;20674;-74
2020/12/07 10:53:56;;;;;;;15.60;9.97;;;;;;;6.64;83.71;99511.44;4944632;28;20223;-73
2020/12/07 10:56:21;;;;;;;17.97;10.33;;;;;;;6.69;83.84;99513.94;4951502;28;20213;-73
2020/12/07 10:58:48;;;;;;;16.10;10.47;;;;;;;6.73;83.75;99513.78;4941651;28;20351;-73
2020/12/07 11:01:16;;;;;;;17.90;10.73;;;;;;;6.76;83.82;99512.88;4922738;29;20195;-74
2020/12/07 11:03:42;;;;;;;16.33;10.23;;;;;;;6.81;83.47;99522.19;4937096;28;20226;-74
2020/12/07 11:06:14;;;;;;;17.57;10.60;;;;;;;6.91;83.37;99521.94;4939837;28;20836;-74
2020/12/07 11:08:48;;;;;;;19.30;11.50;;;;;;;7.00;83.18;99524.25;4940167;29;20546;-73
2020/12/07 11:11:14;;;;;;;15.50;10.50;;;;;;;7.03;83.57;99528.50;4931948;29;20567;-74
2020/12/07 11:13:40;;;;;;;14.50;10.60;;;;;;;7.10;83.18;99519.66;4936435;28;20233;-74
2020/12/07 11:16:11;;;;;;;18.50;10.57;;;;;;;7.15;83.36;99523.81;4947465;28;20206;-74
2020/12/07 11:18:37;;;;;;;15.70;10.70;;;;;;;7.15;83.07;99521.22;4938678;28;20245;-74
2020/12/07 11:21:03;;;;;;;15.93;11.00;;;;;;;7.18;83.21;99525.47;4937076;29;20206;-74
2020/12/07 11:23:29;;;;;;;16.77;11.40;;;;;;;7.20;82.99;99536.66;4936283;28;20238;-74
2020/12/07 11:25:54;;;;;;;19.50;12.13;;;;;;;7.22;83.12;99531.41;4933207;29;20287;-73
2020/12/07 11:28:20;;;;;;;17.43;11.70;;;;;;;7.20;83.37;99529.72;4931153;29;20619;-74
2020/12/07 11:30:46;;;;;;;16.10;11.30;;;;;;;7.26;83.09;99523.47;4943431;28;20233;-74
2020/12/07 11:33:13;;;;;;;16.93;11.20;;;;;;;7.28;82.71;99532.09;4937804;29;20251;-74
2020/12/07 11:35:39;;;;;;;17.30;11.33;;;;;;;7.30;82.80;99524.22;4942342;29;20218;-74
2020/12/07 11:38:09;;;;;;;15.60;11.17;;;;;;;7.35;82.52;99525.81;4935836;28;20215;-73
2020/12/07 11:40:52;;;;;;;17.33;10.87;;;;;;;7.37;82.41;99528.38;4939102;29;20199;-74
2020/12/07 11:43:21;;;;;;;16.43;11.07;;;;;;;7.38;82.38;99523.09;4927283;29;20226;-74
2020/12/07 11:45:47;;;;;;;18.97;10.80;;;;;;;7.39;82.66;99532.59;4940686;29;20206;-74
2020/12/07 11:48:15;;;;;;;16.67;11.53;;;;;;;7.38;82.53;99538.66;4936204;29;20195;-74
2020/12/07 11:50:41;;;;;;;17.33;10.40;;;;;;;7.40;82.25;99533.44;4943276;29;20200;-74